KLUA Airport Information

Runway Information
Airport Frequencies
Airport Navaids
Airport Weather Information & NOTAM
ADDS - METARS form results

(1810 UTC 26 February 2021)
Data provider http://aviationweather.gov/metar/data/
 
METAR text: KLUA 261755Z AUTO 15004KT 10SM CLR 10/M06 A3034 RMK AO2
Conditions at: KLUA (LURAY , VA, US) observed 1755 UTC 26 February 2021
Temperature: 10.0°C (50°F)
Dewpoint: -6.0°C (21°F) [RH = 32%]
Pressure (altimeter): 30.34 inches Hg (1027.5 mb)
Winds: from the SSE (150 degrees) at 5 MPH (4 knots; 2.1 m/s)
Visibility: 10 or more miles (16+ km)
Ceiling: at least 12,000 feet AGL
Clouds: sky clear below 12,000 feet AGL
Weather: automated observation with no human augmentation;
there may or may not be significant weather present at this time

METAR text: KLUA 261735Z AUTO 10003KT 10SM CLR 09/M06 A3035 RMK AO2
Conditions at: KLUA (LURAY , VA, US) observed 1735 UTC 26 February 2021
Temperature: 9.0°C (48°F)
Dewpoint: -6.0°C (21°F) [RH = 34%]
Pressure (altimeter): 30.35 inches Hg (1027.9 mb)
Winds: from the E (100 degrees) at 3 MPH (3 knots; 1.5 m/s)
Visibility: 10 or more miles (16+ km)
Ceiling: at least 12,000 feet AGL
Clouds: sky clear below 12,000 feet AGL
Weather: automated observation with no human augmentation;
there may or may not be significant weather present at this time

METAR text: KLUA 261715Z AUTO 00000KT 10SM CLR 09/M06 A3036 RMK AO2
Conditions at: KLUA (LURAY , VA, US) observed 1715 UTC 26 February 2021
Temperature: 9.0°C (48°F)
Dewpoint: -6.0°C (21°F) [RH = 34%]
Pressure (altimeter): 30.36 inches Hg (1028.2 mb)
Winds: calm
Visibility: 10 or more miles (16+ km)
Ceiling: at least 12,000 feet AGL
Clouds: sky clear below 12,000 feet AGL
Weather: automated observation with no human augmentation;
there may or may not be significant weather present at this time